Time;durP1;ratioP1;P1;durP2;ratioP2;P2;SDS_P1;SDS_P2;PMS_P1;PMS_P2;Temp;Humidity;BMP_temperature;BMP_pressure;BME280_temperature;BME280_humidity;BME280_pressure;Samples;Min_cycle;Max_cycle;Signal;HPM_P1;HPM_P2
2023/04/04 00:02:23;;;;;;;3.50;3.30;;;;;;;10.35;100.00;9176.75;5092294;28;20192;-60
2023/04/04 00:04:51;;;;;;;4.27;3.97;;;;;;;10.41;100.00;7766.91;5092183;28;20195;-61
2023/04/04 00:07:18;;;;;;;3.90;3.70;;;;;;;10.03;100.00;6800.25;5092623;28;20198;-61
2023/04/04 00:09:47;;;;;;;4.00;3.50;;;;;;;9.76;100.00;5517.06;5092473;28;20208;-61
2023/04/04 00:12:15;;;;;;;3.60;3.40;;;;;;;10.16;100.00;5522.75;5092094;28;20592;-61
2023/04/04 00:14:42;;;;;;;8.20;4.03;;;;;;;9.83;100.00;5198.41;5090748;28;20180;-62
2023/04/04 00:17:09;;;;;;;4.10;3.80;;;;;;;10.07;100.00;5201.69;5091947;28;20192;-60
2023/04/04 00:19:36;;;;;;;4.07;3.63;;;;;;;9.99;100.00;6159.91;5090960;28;20257;-60
2023/04/04 00:22:04;;;;;;;4.70;2.87;;;;;;;10.11;100.00;6161.75;5091900;28;20279;-61
2023/04/04 00:24:31;;;;;;;4.20;3.47;;;;;;;9.91;100.00;6478.50;5091868;28;20217;-60
2023/04/04 00:27:00;;;;;;;4.17;3.87;;;;;;;10.09;100.00;6481.31;5091788;28;20237;-60
2023/04/04 00:29:27;;;;;;;4.63;3.53;;;;;;;10.05;100.00;5841.06;5091753;28;20184;-60
2023/04/04 00:31:54;;;;;;;3.53;3.23;;;;;;;9.97;100.00;6159.59;5091817;28;20176;-61
2023/04/04 00:34:22;;;;;;;2.90;2.70;;;;;;;10.04;100.00;7440.31;5091897;28;20689;-61
2023/04/04 00:36:49;;;;;;;3.60;3.37;;;;;;;10.06;100.00;7120.69;5091720;28;20181;-61
2023/04/04 00:39:17;;;;;;;4.73;3.17;;;;;;;10.10;100.00;6161.66;5091638;28;20215;-61
2023/04/04 00:41:44;;;;;;;3.23;3.13;;;;;;;10.03;100.00;6160.53;5091710;28;20185;-60
2023/04/04 00:44:13;;;;;;;2.90;2.73;;;;;;;9.80;100.00;5517.63;5091977;28;20187;-62
2023/04/04 00:46:40;;;;;;;3.37;3.17;;;;;;;9.98;100.00;5839.97;5091601;28;20184;-60
2023/04/04 00:49:07;;;;;;;3.23;3.03;;;;;;;9.91;100.00;5839.00;5091886;28;20200;-62
2023/04/04 00:51:35;;;;;;;3.87;3.33;;;;;;;10.03;100.00;6160.53;5091716;28;20184;-60
2023/04/04 00:54:03;;;;;;;3.20;3.00;;;;;;;9.75;100.00;5836.66;5091500;28;20275;-61
2023/04/04 00:56:33;;;;;;;3.30;3.10;;;;;;;9.97;100.00;4880.63;5091789;28;20187;-62
2023/04/04 00:59:01;;;;;;;3.17;2.97;;;;;;;9.98;100.00;5839.97;5091359;28;20689;-61
2023/04/04 01:01:30;;;;;;;2.47;2.33;;;;;;;9.97;100.00;6159.59;5091450;28;20188;-61
2023/04/04 01:03:57;;;;;;;3.13;2.93;;;;;;;9.94;100.00;5199.91;5091610;28;20199;-61
2023/04/04 01:06:26;;;;;;;3.87;3.67;;;;;;;9.99;100.00;6159.91;5091828;28;20559;-60
2023/04/04 01:08:55;;;;;;;3.47;3.27;;;;;;;10.03;100.00;6480.38;5091629;28;20207;-60
2023/04/04 01:11:22;;;;;;;3.43;3.23;;;;;;;10.04;100.00;6480.53;5091270;28;20228;-60
2023/04/04 01:13:50;;;;;;;3.73;3.53;;;;;;;10.02;100.00;5520.75;5091323;28;20192;-60
2023/04/04 01:16:17;;;;;;;3.60;3.40;;;;;;;10.00;100.00;5520.47;5091401;28;20196;-61
2023/04/04 01:18:47;;;;;;;3.90;3.60;;;;;;;9.85;100.00;5838.03;5091152;28;20616;-61
2023/04/04 01:21:17;;;;;;;3.47;3.37;;;;;;;9.88;100.00;5838.56;5091265;28;20199;-61
2023/04/04 01:23:52;;;;;;;3.73;3.43;;;;;;;9.98;100.00;5520.19;5091178;28;20203;-61
2023/04/04 01:26:25;;;;;;;2.67;2.57;;;;;;;10.01;100.00;5200.94;5091309;28;20184;-61
2023/04/04 01:28:56;;;;;;;3.40;3.20;;;;;;;9.98;100.00;3921.81;5091579;28;20314;-61
2023/04/04 01:31:28;;;;;;;6.07;4.77;;;;;;;9.98;100.00;3602.28;5093625;28;20199;-61
2023/04/04 01:34:03;;;;;;;4.83;3.83;;;;;;;9.90;100.00;5199.34;5095319;28;20188;-60
2023/04/04 01:36:35;;;;;;;4.43;4.23;;;;;;;8.62;100.00;5820.28;5095149;28;20188;-61
2023/04/04 01:39:10;;;;;;;4.50;4.20;;;;;;;9.98;100.00;5520.25;5094865;28;20284;-61
2023/04/04 01:41:40;;;;;;;4.30;4.10;;;;;;;10.12;100.00;5522.09;5095189;28;20184;-61
2023/04/04 01:44:09;;;;;;;5.80;4.07;;;;;;;10.13;100.00;5522.25;5094026;28;20184;-60
2023/04/04 01:46:37;;;;;;;4.67;4.27;;;;;;;10.23;100.00;5203.88;5094787;28;20250;-60
2023/04/04 01:49:04;;;;;;;6.50;4.40;;;;;;;10.12;100.00;4562.84;5095128;28;20245;-60
2023/04/04 01:51:32;;;;;;;6.13;4.03;;;;;;;9.86;100.00;3600.91;5094717;28;20192;-60
2023/04/04 01:53:59;;;;;;;6.57;3.63;;;;;;;9.90;100.00;3601.34;5094634;28;20193;-61
2023/04/04 01:56:26;;;;;;;6.80;3.40;;;;;;;10.05;100.00;3283.41;5094624;28;20184;-61
2023/04/04 01:58:55;;;;;;;5.77;4.30;;;;;;;10.09;100.00;2964.25;5094840;28;20288;-61
2023/04/04 02:01:22;;;;;;;4.60;4.30;;;;;;;10.10;100.00;2964.41;5094561;28;20180;-61
2023/04/04 02:03:50;;;;;;;10.07;3.80;;;;;;;10.09;100.00;3283.84;5094464;28;20196;-61
2023/04/04 02:06:17;;;;;;;5.30;4.90;;;;;;;10.16;100.00;2964.91;5094480;28;20194;-61
2023/04/04 02:08:44;;;;;;;5.50;4.80;;;;;;;10.02;100.00;2963.59;5094747;28;20605;-61
2023/04/04 02:11:11;;;;;;;5.20;4.90;;;;;;;10.03;100.00;3283.25;5094115;28;20263;-61
2023/04/04 02:13:43;;;;;;;5.93;5.57;;;;;;;9.91;100.00;2323.63;5094241;28;20191;-60
2023/04/04 02:16:12;;;;;;;4.77;4.57;;;;;;;10.00;100.00;2324.38;5094264;28;20188;-62
2023/04/04 02:18:39;;;;;;;6.20;5.90;;;;;;;9.97;100.00;3282.56;5094479;28;20231;-61
2023/04/04 02:21:06;;;;;;;5.27;4.87;;;;;;;10.14;100.00;3284.31;5094459;28;20632;-61
2023/04/04 02:23:34;;;;;;;6.37;5.97;;;;;;;10.15;100.00;3604.13;5094361;28;20197;-60
2023/04/04 02:26:01;;;;;;;5.53;5.03;;;;;;;10.23;100.00;2965.66;5094055;28;20196;-60
2023/04/04 02:28:30;;;;;;;4.57;4.27;;;;;;;10.24;100.00;2965.78;5094355;28;20191;-61
2023/04/04 02:31:01;;;;;;;6.00;5.57;;;;;;;10.21;100.00;3285.09;5094459;28;20613;-62
2023/04/04 02:33:30;;;;;;;4.73;4.43;;;;;;;10.27;100.00;3925.19;5093944;28;20284;-61
2023/04/04 02:35:58;;;;;;;4.37;4.07;;;;;;;10.17;100.00;2965.06;5094202;28;20187;-60
2023/04/04 02:38:26;;;;;;;5.43;5.13;;;;;;;10.33;100.00;3286.38;5094261;28;20224;-62
2023/04/04 02:40:53;;;;;;;5.60;5.30;;;;;;;10.32;100.00;2327.28;5093968;28;20180;-62
2023/04/04 02:43:20;;;;;;;7.47;6.13;;;;;;;10.35;100.00;2327.53;5092666;28;20191;-60
2023/04/04 02:45:48;;;;;;;6.20;5.60;;;;;;;10.32;100.00;1688.09;5094196;28;20589;-61
2023/04/04 02:48:15;;;;;;;5.67;5.37;;;;;;;10.45;100.00;2328.41;5093987;28;20191;-61
2023/04/04 02:50:46;;;;;;;7.17;6.20;;;;;;;10.39;100.00;2327.91;5093857;28;20670;-62
2023/04/04 02:53:13;;;;;;;5.00;4.70;;;;;;;10.45;100.00;1369.50;5094098;28;20192;-61
2023/04/04 02:55:41;;;;;;;6.23;5.80;;;;;;;10.40;100.00;91.09;5093558;28;20191;-62
2023/04/04 02:58:08;;;;;;;6.47;5.97;;;;;;;10.45;100.00;-547.50;5093584;28;20215;-61
2023/04/04 03:00:35;;;;;;;7.00;6.40;;;;;;;10.52;100.00;-547.22;5093524;28;20207;-60
2023/04/04 03:03:03;;;;;;;6.30;5.63;;;;;;;10.51;100.00;-866.66;5093364;28;20184;-61
2023/04/04 03:05:31;;;;;;;7.40;6.83;;;;;;;10.57;100.00;-1505.25;5093655;28;20184;-61
2023/04/04 03:08:00;;;;;;;6.20;4.63;;;;;;;10.19;100.00;-867.88;5093574;28;20190;-62
2023/04/04 03:10:29;;;;;;;8.80;6.27;;;;;;;10.48;100.00;-1505.50;5092981;28;20195;-61
2023/04/04 03:12:57;;;;;;;6.77;6.07;;;;;;;10.58;100.00;-1185.84;5093416;28;20296;-60
2023/04/04 03:15:25;;;;;;;4.77;4.47;;;;;;;10.35;100.00;-867.25;5093073;28;20185;-61
2023/04/04 03:17:53;;;;;;;5.90;5.60;;;;;;;10.36;100.00;-1186.56;5093312;28;20612;-61
2023/04/04 03:20:20;;;;;;;6.27;5.80;;;;;;;10.36;100.00;-1825.06;5093068;28;20231;-61
2023/04/04 03:22:48;;;;;;;6.80;6.27;;;;;;;10.24;100.00;-2144.50;5093379;28;20605;-61
2023/04/04 03:25:17;;;;;;;7.77;6.53;;;;;;;10.38;100.00;-1186.47;5092984;28;20184;-61
2023/04/04 03:27:44;;;;;;;8.00;7.33;;;;;;;10.20;100.00;-867.84;5093206;28;20184;-61
2023/04/04 03:30:12;;;;;;;7.10;6.70;;;;;;;10.30;100.00;-1825.22;5092719;28;20188;-61
2023/04/04 03:32:39;;;;;;;7.20;6.50;;;;;;;10.29;100.00;-2144.41;5092801;28;20192;-61
2023/04/04 03:35:07;;;;;;;8.13;7.07;;;;;;;10.04;100.00;-1506.69;5093126;28;20195;-61
2023/04/04 03:37:34;;;;;;;7.97;7.20;;;;;;;10.33;100.00;-1186.63;5092744;28;20191;-60
2023/04/04 03:40:02;;;;;;;8.37;7.67;;;;;;;10.38;100.00;-867.16;5092676;28;20208;-62
2023/04/04 03:42:33;;;;;;;9.47;7.23;;;;;;;10.30;100.00;-867.47;5093131;28;20539;-60
2023/04/04 03:45:01;;;;;;;8.83;7.47;;;;;;;10.41;100.00;-2144.22;5093185;28;20543;-61
2023/04/04 03:47:29;;;;;;;8.67;7.97;;;;;;;10.38;100.00;-1186.47;5092555;28;20227;-61
2023/04/04 03:49:56;;;;;;;9.57;7.03;;;;;;;10.40;100.00;-867.09;5092958;28;20305;-60
2023/04/04 03:52:23;;;;;;;7.30;6.70;;;;;;;10.26;100.00;-1506.09;5092927;28;20188;-61
2023/04/04 03:54:51;;;;;;;8.07;7.40;;;;;;;10.39;100.00;-2144.25;5092213;28;20241;-62
2023/04/04 03:57:18;;;;;;;9.13;8.50;;;;;;;10.27;100.00;-867.59;5092493;28;20245;-62
2023/04/04 03:59:47;;;;;;;8.47;7.97;;;;;;;10.25;100.00;-1506.13;5092153;28;20208;-61
2023/04/04 04:02:17;;;;;;;8.23;7.43;;;;;;;10.31;100.00;-867.41;5092466;28;20191;-60
2023/04/04 04:04:44;;;;;;;8.27;7.67;;;;;;;10.28;100.00;-1186.81;5092300;28;20188;-61
2023/04/04 04:07:11;;;;;;;8.47;7.97;;;;;;;10.44;100.00;-1186.28;5090877;28;20185;-60
2023/04/04 04:09:38;;;;;;;11.27;7.87;;;;;;;10.34;100.00;-1825.13;5092198;28;20191;-61
2023/04/04 04:12:06;;;;;;;9.47;8.60;;;;;;;10.44;100.00;-3101.75;5092030;28;20235;-61
2023/04/04 04:14:34;;;;;;;9.40;8.63;;;;;;;10.45;100.00;-3420.91;5091741;28;20180;-62
2023/04/04 04:17:02;;;;;;;12.53;7.97;;;;;;;10.26;100.00;-2782.72;5091915;28;20196;-60
2023/04/04 04:19:30;;;;;;;8.97;8.27;;;;;;;10.39;100.00;-3101.75;5092124;28;20667;-60
2023/04/04 04:21:57;;;;;;;9.30;8.70;;;;;;;10.29;100.00;-2144.41;5092290;28;20267;-60
2023/04/04 04:24:24;;;;;;;8.87;8.23;;;;;;;10.40;100.00;-2463.44;5091828;28;20187;-62
2023/04/04 04:26:51;;;;;;;9.27;8.53;;;;;;;10.27;100.00;-2782.69;5091783;28;20188;-60
2023/04/04 04:29:19;;;;;;;8.93;8.03;;;;;;;10.20;100.00;-3101.78;5092141;28;20188;-65
2023/04/04 04:31:46;;;;;;;9.33;8.67;;;;;;;10.20;100.00;-2463.66;5090536;28;20183;-60
2023/04/04 04:34:15;;;;;;;9.33;8.43;;;;;;;10.06;100.00;-1825.75;5091793;28;20184;-60
2023/04/04 04:36:42;;;;;;;9.27;8.37;;;;;;;10.22;100.00;-867.75;5091992;28;20203;-61
2023/04/04 04:39:09;;;;;;;9.40;8.70;;;;;;;10.32;100.00;90.66;5091594;28;20215;-61
2023/04/04 04:41:37;;;;;;;9.13;8.20;;;;;;;10.25;100.00;1368.00;5091668;28;20257;-61
2023/04/04 04:44:04;;;;;;;8.73;8.03;;;;;;;10.26;100.00;1368.06;5091938;28;20267;-60
2023/04/04 04:46:32;;;;;;;9.57;8.90;;;;;;;10.25;100.00;-548.38;5091646;28;20215;-61
2023/04/04 04:48:59;;;;;;;12.00;7.97;;;;;;;10.13;100.00;-1187.28;5091594;28;20244;-62
2023/04/04 04:51:28;;;;;;;7.80;7.30;;;;;;;10.22;100.00;409.53;5091989;28;20218;-60
2023/04/04 04:53:55;;;;;;;10.33;7.60;;;;;;;10.21;100.00;-229.25;5091511;28;20188;-62
2023/04/04 04:56:22;;;;;;;8.27;7.67;;;;;;;10.31;100.00;-1186.69;5091500;28;20189;-61
2023/04/04 04:58:49;;;;;;;12.33;8.63;;;;;;;10.32;100.00;-548.06;5091544;28;20184;-60
2023/04/04 05:01:17;;;;;;;9.40;8.73;;;;;;;10.39;100.00;-547.78;5091411;28;20266;-62
2023/04/04 05:03:44;;;;;;;9.93;8.87;;;;;;;10.50;100.00;-547.28;5091679;28;20184;-61
2023/04/04 05:06:11;;;;;;;8.13;7.57;;;;;;;10.50;100.00;-227.81;5093472;28;20192;-61
2023/04/04 05:08:40;;;;;;;10.17;9.33;;;;;;;10.68;100.00;-1504.97;5095457;28;20184;-61
2023/04/04 05:11:07;;;;;;;10.73;9.73;;;;;;;10.85;100.00;-2143.47;5095290;28;20304;-61
2023/04/04 05:13:35;;;;;;;10.23;9.33;;;;;;;10.90;100.00;-2462.84;5095632;28;20208;-61
2023/04/04 05:16:02;;;;;;;9.50;8.80;;;;;;;11.07;100.00;-4059.94;5095297;28;20274;-62
2023/04/04 05:18:29;;;;;;;9.57;8.73;;;;;;;11.14;100.00;-4379.44;5095487;28;20200;-62
2023/04/04 05:20:57;;;;;;;7.87;7.27;;;;;;;11.03;100.00;-3740.50;5094950;28;20214;-61
2023/04/04 05:23:24;;;;;;;8.30;7.70;;;;;;;11.02;100.00;-3740.50;5095205;28;20180;-62
2023/04/04 05:25:53;;;;;;;8.03;7.43;;;;;;;11.10;100.00;-3421.13;5095344;28;20558;-61
2023/04/04 05:28:20;;;;;;;8.37;7.60;;;;;;;11.11;100.00;-3421.13;5095078;28;20238;-61
2023/04/04 05:30:48;;;;;;;15.23;10.93;;;;;;;11.22;100.00;-1823.16;5095326;28;20221;-61
2023/04/04 05:33:15;;;;;;;9.77;7.57;;;;;;;10.96;100.00;733.59;5095094;28;20665;-62
2023/04/04 05:35:42;;;;;;;10.03;7.80;;;;;;;11.36;100.00;2016.38;5094731;28;20298;-64
2023/04/04 05:38:09;;;;;;;8.00;7.53;;;;;;;11.44;100.00;3298.03;5094487;28;20193;-62
2023/04/04 05:40:37;;;;;;;7.97;7.37;;;;;;;11.55;100.00;3939.84;5094645;28;20663;-61
2023/04/04 05:43:07;;;;;;;9.67;7.67;;;;;;;11.54;100.00;7145.31;5094451;28;20192;-62
2023/04/04 05:45:34;;;;;;;9.33;7.63;;;;;;;11.19;100.00;5857.66;5094782;28;20654;-62
2023/04/04 05:48:01;;;;;;;11.33;8.20;;;;;;;11.46;100.00;4900.06;5094519;28;20195;-61
2023/04/04 05:50:28;;;;;;;9.60;7.03;;;;;;;11.23;100.00;2015.31;5094698;28;20532;-61
2023/04/04 05:52:55;;;;;;;9.10;8.27;;;;;;;11.26;100.00;735.53;5094660;28;20558;-61
2023/04/04 05:55:23;;;;;;;8.03;7.33;;;;;;;11.20;100.00;-544.31;5094107;28;20275;-61
2023/04/04 05:57:51;;;;;;;7.90;6.83;;;;;;;11.00;100.00;-1504.09;5094486;28;20184;-61
2023/04/04 06:00:19;;;;;;;7.70;7.03;;;;;;;11.19;100.00;-2142.88;5094360;28;20208;-61
2023/04/04 06:02:47;;;;;;;7.40;6.70;;;;;;;11.21;100.00;-2782.06;5094465;28;20599;-61
2023/04/04 06:05:14;;;;;;;7.70;6.93;;;;;;;11.16;100.00;-2782.09;5094557;28;20184;-61
2023/04/04 06:07:41;;;;;;;15.43;7.63;;;;;;;11.23;100.00;-3101.63;5094038;28;20188;-61
2023/04/04 06:10:09;;;;;;;8.53;7.30;;;;;;;11.18;100.00;-2782.09;5094410;28;20180;-61
2023/04/04 06:12:36;;;;;;;8.00;6.80;;;;;;;11.15;100.00;-3421.13;5093700;28;20239;-61
2023/04/04 06:15:04;;;;;;;12.23;7.07;;;;;;;11.16;100.00;-4060.06;5092733;28;20191;-60
2023/04/04 06:17:32;;;;;;;10.53;7.00;;;;;;;11.16;100.00;-5337.53;5093882;28;20211;-61
2023/04/04 06:20:00;;;;;;;7.73;6.30;;;;;;;11.11;100.00;-5018.06;5093691;28;20208;-62
2023/04/04 06:22:27;;;;;;;7.00;6.27;;;;;;;11.15;100.00;-5018.16;5093751;28;20194;-61
2023/04/04 06:24:54;;;;;;;6.97;6.47;;;;;;;11.24;100.00;-4699.06;5093652;28;20185;-61
2023/04/04 06:27:22;;;;;;;8.13;6.20;;;;;;;11.26;100.00;-4379.66;5093732;28;20190;-61
2023/04/04 06:29:49;;;;;;;8.40;6.03;;;;;;;11.29;100.00;-3740.72;5093665;28;20650;-61
2023/04/04 06:32:16;;;;;;;6.63;4.73;;;;;;;11.10;100.00;-3740.56;5094188;28;20184;-60
2023/04/04 06:34:45;;;;;;;6.40;5.87;;;;;;;11.09;100.00;-5975.75;5093865;28;20636;-61
2023/04/04 06:37:12;;;;;;;7.80;6.57;;;;;;;11.10;100.00;-6933.25;5093536;28;20235;-61
2023/04/04 06:39:39;;;;;;;7.40;6.70;;;;;;;11.15;100.00;-7252.69;5093633;28;20574;-61
2023/04/04 06:42:06;;;;;;;7.40;6.63;;;;;;;11.23;100.00;-6934.06;5093430;28;20184;-63
2023/04/04 06:44:33;;;;;;;7.23;6.07;;;;;;;11.34;100.00;-5976.88;5093441;28;20235;-61
2023/04/04 06:47:00;;;;;;;8.10;6.60;;;;;;;11.31;100.00;-5976.72;5093264;28;20187;-62
2023/04/04 06:49:27;;;;;;;5.23;4.90;;;;;;;11.18;100.00;-5337.59;5093483;28;20192;-60
2023/04/04 06:51:56;;;;;;;8.27;5.70;;;;;;;11.22;100.00;-5976.34;5093495;28;20184;-62
2023/04/04 06:54:24;;;;;;;6.73;6.13;;;;;;;11.25;100.00;-6295.75;5093441;28;20317;-61
2023/04/04 06:56:52;;;;;;;5.33;4.83;;;;;;;11.19;100.00;-5337.63;5092911;28;20180;-61
2023/04/04 06:59:19;;;;;;;13.57;5.17;;;;;;;11.33;100.00;-5657.47;5092803;28;20219;-60
2023/04/04 07:01:46;;;;;;;7.07;6.40;;;;;;;11.45;100.00;-5657.94;5093185;28;20208;-61
2023/04/04 07:04:14;;;;;;;11.37;7.10;;;;;;;11.58;100.00;-6297.34;5092865;28;20192;-63
2023/04/04 07:06:41;;;;;;;10.47;7.13;;;;;;;11.75;100.00;-5339.53;5092686;28;20278;-62
2023/04/04 07:09:09;;;;;;;8.03;7.10;;;;;;;11.65;100.00;-2781.75;5092964;28;20207;-62
2023/04/04 07:11:36;;;;;;;9.93;6.97;;;;;;;11.82;100.00;-1821.81;5092736;28;20239;-60
2023/04/04 07:14:04;;;;;;;11.27;6.43;;;;;;;11.66;100.00;-1822.19;5093069;28;20237;-61
2023/04/04 07:16:31;;;;;;;7.50;6.53;;;;;;;11.50;100.00;-3421.25;5092598;28;20313;-61
2023/04/04 07:18:58;;;;;;;8.40;5.70;;;;;;;11.52;100.00;-3101.56;5093353;28;20196;-62
2023/04/04 07:21:25;;;;;;;9.63;6.30;;;;;;;11.38;100.00;-5018.84;5092195;28;20234;-61
2023/04/04 07:23:52;;;;;;;6.73;6.07;;;;;;;11.18;100.00;-5656.91;5092678;28;20185;-60
2023/04/04 07:26:21;;;;;;;7.30;6.10;;;;;;;11.30;100.00;-5976.69;5092682;28;20253;-60
2023/04/04 07:28:49;;;;;;;6.00;5.60;;;;;;;11.24;100.00;-5976.44;5092154;28;20184;-62
2023/04/04 07:31:16;;;;;;;16.43;6.93;;;;;;;11.20;100.00;-6933.88;5092914;28;20185;-61
2023/04/04 07:33:43;;;;;;;10.63;7.80;;;;;;;11.39;100.00;-6296.44;5092575;28;20192;-61
2023/04/04 07:36:10;;;;;;;10.07;7.00;;;;;;;11.24;100.00;-5657.13;5092453;28;20192;-61
2023/04/04 07:38:38;;;;;;;15.47;7.33;;;;;;;11.36;100.00;-5657.59;5092245;28;20188;-62
2023/04/04 07:41:05;;;;;;;12.80;7.50;;;;;;;11.42;100.00;-5657.81;5092144;28;20638;-61
2023/04/04 07:43:34;;;;;;;8.50;6.73;;;;;;;11.49;100.00;-4060.50;5091424;28;20191;-61
2023/04/04 07:46:01;;;;;;;7.63;6.93;;;;;;;11.46;100.00;-5658.00;5092114;28;20195;-62
2023/04/04 07:48:28;;;;;;;7.03;6.47;;;;;;;11.25;100.00;-5657.16;5092038;28;20180;-61
2023/04/04 07:50:56;;;;;;;9.00;7.10;;;;;;;11.55;100.00;-5658.31;5091562;28;20195;-61
2023/04/04 07:53:23;;;;;;;10.77;7.73;;;;;;;11.55;100.00;-5019.31;5092378;28;20354;-62
2023/04/04 07:55:50;;;;;;;14.00;7.83;;;;;;;11.57;100.00;-3740.97;5091840;28;20196;-62
2023/04/04 07:58:17;;;;;;;9.43;7.63;;;;;;;11.61;100.00;-3741.00;5091380;28;20195;-61
2023/04/04 08:00:46;;;;;;;6.97;6.40;;;;;;;11.28;100.00;-4379.69;5090823;28;20204;-61
2023/04/04 08:03:16;;;;;;;7.53;6.87;;;;;;;11.46;100.00;-6296.81;5091798;28;20188;-62
2023/04/04 08:05:43;;;;;;;9.83;6.77;;;;;;;11.50;100.00;-6616.31;5092062;28;20211;-61
2023/04/04 08:08:10;;;;;;;10.27;7.37;;;;;;;11.34;100.00;-6615.50;5091759;28;20184;-62
2023/04/04 08:10:38;;;;;;;7.80;7.23;;;;;;;11.27;100.00;-7891.81;5092020;28;20180;-61
2023/04/04 08:13:05;;;;;;;12.90;7.10;;;;;;;11.34;100.00;-7573.16;5092096;28;20188;-68
2023/04/04 08:15:32;;;;;;;8.63;7.30;;;;;;;11.55;100.00;-6935.97;5091248;28;20192;-67
2023/04/04 08:18:00;;;;;;;6.43;6.03;;;;;;;11.40;100.00;-5018.91;5092195;28;20196;-66
2023/04/04 08:20:30;;;;;;;7.00;5.63;;;;;;;11.28;100.00;-6934.38;5091878;28;20642;-66
2023/04/04 08:22:58;;;;;;;9.20;6.73;;;;;;;11.35;100.00;-7573.25;5091781;28;20267;-68
2023/04/04 08:25:25;;;;;;;13.07;7.40;;;;;;;11.30;100.00;-6615.28;5091727;28;20226;-65
2023/04/04 08:27:53;;;;;;;6.93;6.43;;;;;;;11.50;100.00;-5019.19;5091579;28;20267;-67
2023/04/04 08:30:20;;;;;;;13.77;7.27;;;;;;;11.49;100.00;-5977.50;5091500;28;20677;-66
2023/04/04 08:32:47;;;;;;;7.33;6.10;;;;;;;11.36;100.00;-5338.22;5091484;28;20184;-66
2023/04/04 08:35:16;;;;;;;9.57;5.70;;;;;;;11.21;100.00;-6614.75;5087837;28;20179;-66
2023/04/04 08:37:45;;;;;;;13.40;7.00;;;;;;;11.07;100.00;-8209.22;5090525;28;20215;-66
2023/04/04 08:40:13;;;;;;;9.70;6.50;;;;;;;11.20;100.00;-7572.19;5089368;28;20640;-66
2023/04/04 08:42:43;;;;;;;13.77;7.90;;;;;;;11.35;100.00;-7254.00;5090380;28;20190;-67
2023/04/04 08:45:13;;;;;;;9.23;7.03;;;;;;;11.48;100.00;-6616.22;5090208;28;20218;-67
2023/04/04 08:47:41;;;;;;;13.47;8.13;;;;;;;11.78;100.00;-5339.66;5090465;28;20188;-68
2023/04/04 08:50:09;;;;;;;12.87;7.00;;;;;;;11.72;100.00;-4380.50;5090331;28;21183;-68
2023/04/04 08:52:39;;;;;;;10.60;8.10;;;;;;;11.77;100.00;-5978.75;5087445;28;20188;-67
2023/04/04 08:55:08;;;;;;;18.47;7.97;;;;;;;12.03;100.00;-5979.91;5089736;28;20179;-68
2023/04/04 08:57:36;;;;;;;13.27;7.80;;;;;;;12.31;100.00;-5661.31;5087514;28;20184;-67
2023/04/04 09:00:05;;;;;;;9.67;7.13;;;;;;;12.22;100.00;100.84;5072435;28;20196;-68
2023/04/04 09:02:39;;;;;;;18.00;8.90;;;;;;;12.38;100.00;101.69;5090278;28;20189;-67
2023/04/04 09:05:09;;;;;;;11.80;7.50;;;;;;;12.55;100.00;3309.63;5090554;28;20187;-67
2023/04/04 09:07:38;;;;;;;12.47;6.37;;;;;;;12.25;100.00;4589.63;5087840;28;20265;-67
2023/04/04 09:10:09;;;;;;;16.53;8.17;;;;;;;12.19;100.00;-1180.53;5088899;28;20622;-66
2023/04/04 09:12:37;;;;;;;11.07;7.77;;;;;;;12.26;100.00;-539.72;5087345;28;20311;-67
2023/04/04 09:15:05;;;;;;;12.90;7.37;;;;;;;12.27;100.00;741.97;5090017;28;20191;-66
2023/04/04 09:17:33;;;;;;;17.13;7.87;;;;;;;12.62;100.00;2668.69;5091356;28;20199;-67
2023/04/04 09:20:03;;;;;;;8.87;6.83;;;;;;;12.56;100.00;7162.41;5091518;28;20271;-66
2023/04/04 09:22:31;;;;;;;11.33;7.17;;;;;;;12.69;100.00;8128.66;5091725;28;20235;-67
2023/04/04 09:25:00;;;;;;;11.00;6.90;;;;;;;12.83;100.00;9095.84;5091196;28;20184;-68
2023/04/04 09:27:27;;;;;;;9.40;6.57;;;;;;;12.42;100.00;8123.66;5091444;28;20191;-68
2023/04/04 09:29:55;;;;;;;17.60;7.57;;;;;;;12.65;100.00;4273.63;5091234;28;20185;-66
2023/04/04 09:32:23;;;;;;;8.40;6.57;;;;;;;12.56;100.00;6519.97;5090579;28;20643;-65
2023/04/04 09:34:50;;;;;;;11.17;6.50;;;;;;;12.37;100.00;5232.94;5091607;28;20222;-67
2023/04/04 09:37:18;;;;;;;12.27;7.37;;;;;;;12.32;100.00;742.31;5091149;28;20234;-67
2023/04/04 09:39:45;;;;;;;16.00;7.83;;;;;;;12.40;100.00;-859.50;5090979;28;20188;-67
2023/04/04 09:42:15;;;;;;;17.03;7.23;;;;;;;12.36;100.00;-1179.97;5091567;28;20575;-67
2023/04/04 09:44:43;;;;;;;18.00;7.07;;;;;;;12.11;100.00;-2461.38;5091578;28;20646;-67
2023/04/04 09:47:32;;;;;;;13.17;7.70;;;;;;;12.16;100.00;-5021.09;5091247;28;20234;-67
2023/04/04 09:50:00;;;;;;;13.73;7.10;;;;;;;12.29;100.00;-5341.38;5086972;28;20231;-68
2023/04/04 09:52:27;;;;;;;12.20;6.20;;;;;;;12.09;100.00;-4381.19;5092124;28;20196;-67
2023/04/04 09:54:58;;;;;;;11.37;7.10;;;;;;;12.15;100.00;-5021.06;5094972;28;20625;-68
2023/04/04 09:57:29;;;;;;;20.93;7.67;;;;;;;12.01;100.00;-5660.13;5095001;28;20212;-67
2023/04/04 10:00:05;;;;;;;18.67;7.13;;;;;;;12.25;100.00;-5021.34;5094799;28;20192;-68
2023/04/04 10:02:34;;;;;;;22.40;7.50;;;;;;;12.01;100.00;-6619.13;5094874;28;20239;-68
2023/04/04 10:05:03;;;;;;;17.63;6.67;;;;;;;12.03;100.00;-6938.84;5093496;28;20271;-67
2023/04/04 10:07:34;;;;;;;11.90;7.40;;;;;;;12.27;100.00;-6940.28;5093355;28;20516;-67
2023/04/04 10:10:02;;;;;;;12.60;7.37;;;;;;;12.27;100.00;-5981.00;5094874;28;20204;-68
2023/04/04 10:12:31;;;;;;;17.27;7.83;;;;;;;12.16;100.00;-6939.63;5094275;28;20722;-67
2023/04/04 10:14:59;;;;;;;14.57;6.77;;;;;;;12.24;100.00;-7579.41;5093552;28;20196;-67
2023/04/04 10:17:32;;;;;;;5.17;4.77;;;;;;;11.94;100.00;-8216.25;5094277;28;20202;-67
2023/04/04 10:20:02;;;;;;;9.50;6.57;;;;;;;12.13;100.00;-8537.25;5094639;28;20187;-68
2023/04/04 10:22:30;;;;;;;18.57;8.40;;;;;;;12.15;100.00;-8856.94;5094496;28;20245;-68
2023/04/04 10:24:58;;;;;;;31.73;8.27;;;;;;;12.30;100.00;-7899.53;5094409;28;20195;-68
2023/04/04 10:27:25;;;;;;;20.57;8.13;;;;;;;12.41;100.00;-7260.84;5094736;28;20640;-68
2023/04/04 10:29:56;;;;;;;12.07;7.27;;;;;;;12.62;100.00;-6622.41;5094584;28;20180;-68
2023/04/04 10:32:28;;;;;;;20.57;8.37;;;;;;;12.66;100.00;-4382.25;5094358;28;20199;-67
2023/04/04 10:35:02;;;;;;;20.83;8.13;;;;;;;12.65;100.00;-2781.00;5094430;28;20253;-67
2023/04/04 10:37:35;;;;;;;20.17;7.87;;;;;;;12.68;100.00;-1819.84;5093218;28;20187;-67
2023/04/04 10:40:08;;;;;;;15.03;7.30;;;;;;;12.81;100.00;-1178.50;5093216;28;20188;-66
2023/04/04 10:42:40;;;;;;;15.33;7.00;;;;;;;12.72;100.00;-1178.78;5093835;28;20250;-67
2023/04/04 10:45:11;;;;;;;20.37;9.07;;;;;;;12.61;100.00;-217.66;5094012;28;20642;-66
2023/04/04 10:47:39;;;;;;;18.80;7.80;;;;;;;12.62;100.00;103.00;5094319;28;20188;-66
2023/04/04 10:50:09;;;;;;;20.73;8.40;;;;;;;12.69;100.00;1386.13;5093838;28;20191;-69
2023/04/04 10:52:38;;;;;;;11.50;7.10;;;;;;;12.71;100.00;3632.28;5094415;28;20527;-67
2023/04/04 10:55:08;;;;;;;13.47;7.17;;;;;;;12.72;100.00;3311.50;5093583;28;20196;-66
2023/04/04 10:57:40;;;;;;;16.33;7.47;;;;;;;12.91;100.00;3634.53;5093938;28;20207;-67
2023/04/04 11:00:11;;;;;;;16.77;7.10;;;;;;;12.71;100.00;4595.38;5093609;28;20210;-67
2023/04/04 11:02:47;;;;;;;16.10;7.63;;;;;;;12.64;100.00;5878.88;5093631;28;20674;-66
2023/04/04 11:05:21;;;;;;;15.70;7.20;;;;;;;12.85;100.00;5560.72;5093489;28;20183;-67
2023/04/04 11:07:49;;;;;;;18.07;7.73;;;;;;;13.02;100.00;7491.69;5093042;28;20188;-66
2023/04/04 11:10:23;;;;;;;20.57;7.70;;;;;;;13.20;100.00;9425.06;5091938;28;20287;-67
2023/04/04 11:12:55;;;;;;;22.47;7.87;;;;;;;13.32;100.00;12647.47;5093249;28;20728;-66
2023/04/04 11:15:26;;;;;;;17.50;7.70;;;;;;;13.31;100.00;16515.44;5093724;28;20601;-66
2023/04/04 11:17:58;;;;;;;17.43;7.47;;;;;;;13.42;100.00;17164.25;5092706;28;20582;-65
2023/04/04 11:20:30;;;;;;;23.53;8.70;;;;;;;13.56;100.00;23306.56;5093631;28;20180;-66
2023/04/04 11:23:21;;;;;;;15.23;7.20;;;;;;;13.60;100.00;27514.84;5092770;28;20204;-66
2023/04/04 11:25:52;;;;;;;21.60;8.37;;;;;;;13.50;100.00;31720.44;5089589;28;20198;-68
2023/04/04 11:28:41;;;;;;;18.20;7.93;;;;;;;13.81;100.00;36281.22;5092079;28;20222;-66
2023/04/04 11:31:33;;;;;;;16.87;7.20;;;;;;;13.71;100.00;39523.38;5093139;27;20195;-66
2023/04/04 11:34:05;;;;;;;13.73;7.13;;;;;;;14.04;100.00;43449.94;5093324;28;20619;-66